sensor_id;sensor_type;location;lat;lon;timestamp;pressure;altitude;pressure_sealevel;temperature;humidity
58686;BME280;44465;53.206;-6.106;2023-03-26T00:01:16;99947.69;;;20.39;51.51
58686;BME280;44465;53.206;-6.106;2023-03-26T00:03:43;99938.72;;;20.40;51.52
58686;BME280;44465;53.206;-6.106;2023-03-26T00:06:31;99939.66;;;20.39;51.31
58686;BME280;44465;53.206;-6.106;2023-03-26T00:08:59;99912.13;;;20.24;51.78
58686;BME280;44465;53.206;-6.106;2023-03-26T00:11:27;99941.38;;;20.40;51.58
58686;BME280;44465;53.206;-6.106;2023-03-26T00:13:53;99939.78;;;20.37;51.58
58686;BME280;44465;53.206;-6.106;2023-03-26T00:16:26;99902.03;;;20.14;51.35
58686;BME280;44465;53.206;-6.106;2023-03-26T00:18:52;99922.41;;;20.30;51.39
58686;BME280;44465;53.206;-6.106;2023-03-26T00:21:20;99902.59;;;20.20;51.56
58686;BME280;44465;53.206;-6.106;2023-03-26T00:23:47;99934.31;;;20.39;51.63
58686;BME280;44465;53.206;-6.106;2023-03-26T00:26:14;99938.81;;;20.38;51.47
58686;BME280;44465;53.206;-6.106;2023-03-26T00:28:42;99940.63;;;20.38;51.67
58686;BME280;44465;53.206;-6.106;2023-03-26T00:31:26;99946.16;;;20.35;51.89
58686;BME280;44465;53.206;-6.106;2023-03-26T00:33:55;99945.72;;;20.28;51.45
58686;BME280;44465;53.206;-6.106;2023-03-26T00:36:42;99944.00;;;20.27;51.79
58686;BME280;44465;53.206;-6.106;2023-03-26T00:39:08;99928.34;;;20.21;51.62
58686;BME280;44465;53.206;-6.106;2023-03-26T00:41:34;99948.09;;;20.33;51.76
58686;BME280;44465;53.206;-6.106;2023-03-26T00:44:01;99906.94;;;20.08;51.58
58686;BME280;44465;53.206;-6.106;2023-03-26T00:46:29;99937.41;;;20.33;51.96
58686;BME280;44465;53.206;-6.106;2023-03-26T00:48:58;99939.97;;;20.34;51.76
58686;BME280;44465;53.206;-6.106;2023-03-26T00:51:36;99933.75;;;20.34;51.53
58686;BME280;44465;53.206;-6.106;2023-03-26T00:54:26;99924.34;;;20.28;51.60
58686;BME280;44465;53.206;-6.106;2023-03-26T00:57:09;99930.84;;;20.24;52.06
58686;BME280;44465;53.206;-6.106;2023-03-26T00:59:36;99922.63;;;20.27;51.94
58686;BME280;44465;53.206;-6.106;2023-03-26T01:02:02;99945.31;;;20.34;51.94
58686;BME280;44465;53.206;-6.106;2023-03-26T01:04:31;99931.38;;;20.29;52.25
58686;BME280;44465;53.206;-6.106;2023-03-26T01:07:24;99922.81;;;20.24;52.10
58686;BME280;44465;53.206;-6.106;2023-03-26T01:09:58;99943.59;;;20.33;51.98
58686;BME280;44465;53.206;-6.106;2023-03-26T01:12:29;99935.03;;;20.28;52.25
58686;BME280;44465;53.206;-6.106;2023-03-26T01:15:10;99945.50;;;20.31;52.14
58686;BME280;44465;53.206;-6.106;2023-03-26T01:17:57;99930.66;;;20.27;52.22
58686;BME280;44465;53.206;-6.106;2023-03-26T01:20:33;99923.00;;;20.21;52.31
58686;BME280;44465;53.206;-6.106;2023-03-26T01:23:05;99938.25;;;20.33;52.30
58686;BME280;44465;53.206;-6.106;2023-03-26T01:25:37;99925.69;;;20.21;52.19
58686;BME280;44465;53.206;-6.106;2023-03-26T01:28:05;99939.97;;;20.34;52.33
58686;BME280;44465;53.206;-6.106;2023-03-26T01:30:49;99903.97;;;20.12;52.23
58686;BME280;44465;53.206;-6.106;2023-03-26T01:33:25;99944.44;;;20.34;52.39
58686;BME280;44465;53.206;-6.106;2023-03-26T01:35:58;99950.66;;;20.34;52.23
58686;BME280;44465;53.206;-6.106;2023-03-26T01:39:01;99940.16;;;20.31;52.38
58686;BME280;44465;53.206;-6.106;2023-03-26T01:41:44;99912.16;;;20.09;52.22
58686;BME280;44465;53.206;-6.106;2023-03-26T01:46:58;99940.38;;;20.28;52.49
58686;BME280;44465;53.206;-6.106;2023-03-26T01:49:26;99918.94;;;20.15;52.32
58686;BME280;44465;53.206;-6.106;2023-03-26T01:51:52;99864.22;;;19.79;52.26
58686;BME280;44465;53.206;-6.106;2023-03-26T01:54:22;99946.47;;;20.30;52.49
58686;BME280;44465;53.206;-6.106;2023-03-26T02:05:54;99942.50;;;20.23;52.35
58686;BME280;44465;53.206;-6.106;2023-03-26T02:09:02;99938.50;;;20.15;52.43
58686;BME280;44465;53.206;-6.106;2023-03-26T02:11:28;99944.50;;;20.19;52.76
58686;BME280;44465;53.206;-6.106;2023-03-26T02:13:58;99872.44;;;19.76;52.75
58686;BME280;44465;53.206;-6.106;2023-03-26T02:16:23;99947.94;;;20.21;52.71
58686;BME280;44465;53.206;-6.106;2023-03-26T02:18:49;99858.63;;;19.69;52.64
58686;BME280;44465;53.206;-6.106;2023-03-26T02:21:22;99959.19;;;20.26;52.77
58686;BME280;44465;53.206;-6.106;2023-03-26T02:23:53;99947.84;;;20.23;52.98
58686;BME280;44465;53.206;-6.106;2023-03-26T02:26:30;99914.69;;;19.98;52.85
58686;BME280;44465;53.206;-6.106;2023-03-26T02:29:06;99954.72;;;20.27;52.82
58686;BME280;44465;53.206;-6.106;2023-03-26T02:31:34;99951.28;;;20.25;53.01
58686;BME280;44465;53.206;-6.106;2023-03-26T02:34:00;99946.72;;;20.12;52.81
58686;BME280;44465;53.206;-6.106;2023-03-26T02:36:28;99884.19;;;19.73;52.89
58686;BME280;44465;53.206;-6.106;2023-03-26T02:38:57;99974.47;;;20.24;52.77
58686;BME280;44465;53.206;-6.106;2023-03-26T02:41:25;99941.97;;;20.03;52.89
58686;BME280;44465;53.206;-6.106;2023-03-26T02:43:56;99880.38;;;19.63;52.84
58686;BME280;44465;53.206;-6.106;2023-03-26T02:46:31;99931.97;;;19.92;52.82
58686;BME280;44465;53.206;-6.106;2023-03-26T02:49:20;99962.75;;;20.12;53.06
58686;BME280;44465;53.206;-6.106;2023-03-26T02:51:45;99956.28;;;20.02;52.99
58686;BME280;44465;53.206;-6.106;2023-03-26T02:54:24;99951.78;;;20.03;52.95
58686;BME280;44465;53.206;-6.106;2023-03-26T02:57:46;99994.25;;;20.22;53.16
58686;BME280;44465;53.206;-6.106;2023-03-26T03:00:40;99989.84;;;20.21;53.07
58686;BME280;44465;53.206;-6.106;2023-03-26T03:03:30;99986.41;;;20.19;53.10
58686;BME280;44465;53.206;-6.106;2023-03-26T03:05:56;99974.88;;;20.04;53.11
58686;BME280;44465;53.206;-6.106;2023-03-26T03:08:45;99990.56;;;20.10;53.29
58686;BME280;44465;53.206;-6.106;2023-03-26T03:11:40;99973.16;;;20.03;53.16
58686;BME280;44465;53.206;-6.106;2023-03-26T03:14:06;99988.84;;;20.09;53.16
58686;BME280;44465;53.206;-6.106;2023-03-26T03:16:36;99990.84;;;20.05;53.17
58686;BME280;44465;53.206;-6.106;2023-03-26T03:19:05;100012.41;;;20.17;52.99
58686;BME280;44465;53.206;-6.106;2023-03-26T03:21:39;100010.47;;;20.19;53.19
58686;BME280;44465;53.206;-6.106;2023-03-26T03:24:07;100017.53;;;20.20;53.25
58686;BME280;44465;53.206;-6.106;2023-03-26T03:26:43;100011.94;;;20.10;53.46
58686;BME280;44465;53.206;-6.106;2023-03-26T03:29:19;99973.47;;;19.83;52.91
58686;BME280;44465;53.206;-6.106;2023-03-26T03:31:44;100016.41;;;20.09;53.37
58686;BME280;44465;53.206;-6.106;2023-03-26T03:34:30;100014.69;;;20.08;53.51
58686;BME280;44465;53.206;-6.106;2023-03-26T03:36:55;99988.94;;;19.93;53.06
58686;BME280;44465;53.206;-6.106;2023-03-26T03:39:31;99962.97;;;19.80;53.27
58686;BME280;44465;53.206;-6.106;2023-03-26T03:41:57;99989.13;;;19.90;53.21
58686;BME280;44465;53.206;-6.106;2023-03-26T03:44:28;99982.06;;;19.89;53.34
58686;BME280;44465;53.206;-6.106;2023-03-26T03:47:24;100036.53;;;20.15;53.04
58686;BME280;44465;53.206;-6.106;2023-03-26T03:49:55;99951.53;;;19.64;53.46
58686;BME280;44465;53.206;-6.106;2023-03-26T03:52:21;99971.56;;;19.71;53.10
58686;BME280;44465;53.206;-6.106;2023-03-26T03:54:47;99984.53;;;19.77;53.21
58686;BME280;44465;53.206;-6.106;2023-03-26T03:57:27;100053.47;;;20.15;53.18
58686;BME280;44465;53.206;-6.106;2023-03-26T04:00:03;99997.69;;;19.80;53.44
58686;BME280;44465;53.206;-6.106;2023-03-26T04:02:48;100054.31;;;20.16;53.34
58686;BME280;44465;53.206;-6.106;2023-03-26T04:05:19;100053.81;;;20.09;53.38
58686;BME280;44465;53.206;-6.106;2023-03-26T04:07:54;100014.41;;;19.84;53.53
58686;BME280;44465;53.206;-6.106;2023-03-26T04:10:37;99975.78;;;19.61;53.50
58686;BME280;44465;53.206;-6.106;2023-03-26T04:13:23;100012.88;;;19.80;53.15
58686;BME280;44465;53.206;-6.106;2023-03-26T04:16:18;99989.13;;;19.61;53.50
58686;BME280;44465;53.206;-6.106;2023-03-26T04:18:44;100066.25;;;20.10;53.30
58686;BME280;44465;53.206;-6.106;2023-03-26T04:21:13;100077.81;;;20.11;53.55
58686;BME280;44465;53.206;-6.106;2023-03-26T04:23:40;100060.81;;;19.97;53.59
58686;BME280;44465;53.206;-6.106;2023-03-26T04:26:28;100084.19;;;20.08;53.47
58686;BME280;44465;53.206;-6.106;2023-03-26T04:29:13;100096.41;;;20.12;53.73
58686;BME280;44465;53.206;-6.106;2023-03-26T04:31:43;100079.41;;;19.99;53.67
58686;BME280;44465;53.206;-6.106;2023-03-26T04:34:20;100091.81;;;20.00;53.44
58686;BME280;44465;53.206;-6.106;2023-03-26T04:36:56;100107.50;;;20.06;53.39
58686;BME280;44465;53.206;-6.106;2023-03-26T04:39:27;100094.22;;;19.90;53.48
58686;BME280;44465;53.206;-6.106;2023-03-26T04:42:15;100101.47;;;20.03;53.58
58686;BME280;44465;53.206;-6.106;2023-03-26T04:44:56;100128.47;;;20.12;53.28
58686;BME280;44465;53.206;-6.106;2023-03-26T04:47:34;100082.06;;;19.84;53.32
58686;BME280;44465;53.206;-6.106;2023-03-26T04:50:03;100033.69;;;19.60;53.31
58686;BME280;44465;53.206;-6.106;2023-03-26T04:52:29;100086.28;;;19.89;53.29
58686;BME280;44465;53.206;-6.106;2023-03-26T04:57:58;100134.00;;;20.09;53.35
58686;BME280;44465;53.206;-6.106;2023-03-26T05:00:49;100130.28;;;19.97;53.20
58686;BME280;44465;53.206;-6.106;2023-03-26T05:03:16;100135.25;;;20.04;53.70
58686;BME280;44465;53.206;-6.106;2023-03-26T05:05:45;100148.53;;;20.05;53.55
58686;BME280;44465;53.206;-6.106;2023-03-26T05:08:11;100136.03;;;19.91;53.51
58686;BME280;44465;53.206;-6.106;2023-03-26T05:10:45;100167.63;;;20.13;53.50
58686;BME280;44465;53.206;-6.106;2023-03-26T05:13:28;100116.38;;;19.76;53.41
58686;BME280;44465;53.206;-6.106;2023-03-26T05:15:56;100140.50;;;19.91;53.49
58686;BME280;44465;53.206;-6.106;2023-03-26T05:18:33;100190.56;;;20.18;53.37
58686;BME280;44465;53.206;-6.106;2023-03-26T05:21:03;100188.13;;;20.13;53.49
58686;BME280;44465;53.206;-6.106;2023-03-26T05:23:30;100138.25;;;19.83;53.09
58686;BME280;44465;53.206;-6.106;2023-03-26T05:26:10;100190.06;;;20.11;53.24
58686;BME280;44465;53.206;-6.106;2023-03-26T05:28:36;100150.66;;;19.84;53.35
58686;BME280;44465;53.206;-6.106;2023-03-26T05:31:18;100209.94;;;20.21;53.22
58686;BME280;44465;53.206;-6.106;2023-03-26T05:33:58;100217.38;;;20.16;53.44
58686;BME280;44465;53.206;-6.106;2023-03-26T05:37:06;100188.41;;;19.94;53.49
58686;BME280;44465;53.206;-6.106;2023-03-26T05:39:45;100241.25;;;20.19;53.55
58686;BME280;44465;53.206;-6.106;2023-03-26T05:42:13;100245.72;;;20.19;53.40
58686;BME280;44465;53.206;-6.106;2023-03-26T05:44:54;100201.19;;;19.89;53.49
58686;BME280;44465;53.206;-6.106;2023-03-26T05:47:25;100254.78;;;20.16;53.67
58686;BME280;44465;53.206;-6.106;2023-03-26T05:49:51;100237.28;;;19.96;53.85
58686;BME280;44465;53.206;-6.106;2023-03-26T05:52:20;100262.03;;;20.14;53.64
58686;BME280;44465;53.206;-6.106;2023-03-26T05:55:16;100270.25;;;20.11;53.64
58686;BME280;44465;53.206;-6.106;2023-03-26T05:58:07;100203.19;;;19.69;53.43
58686;BME280;44465;53.206;-6.106;2023-03-26T06:01:13;100278.34;;;20.09;53.37
58686;BME280;44465;53.206;-6.106;2023-03-26T06:04:06;100265.91;;;19.94;53.55
58686;BME280;44465;53.206;-6.106;2023-03-26T06:06:36;100291.72;;;20.09;53.25
58686;BME280;44465;53.206;-6.106;2023-03-26T06:09:04;100283.19;;;20.03;53.39
58686;BME280;44465;53.206;-6.106;2023-03-26T06:11:31;100316.44;;;20.13;53.36
58686;BME280;44465;53.206;-6.106;2023-03-26T06:13:57;100225.28;;;19.57;53.66
58686;BME280;44465;53.206;-6.106;2023-03-26T06:16:44;100324.97;;;20.20;53.56
58686;BME280;44465;53.206;-6.106;2023-03-26T06:19:30;100339.66;;;20.12;53.48
58686;BME280;44465;53.206;-6.106;2023-03-26T06:22:00;100302.38;;;19.95;53.59
58686;BME280;44465;53.206;-6.106;2023-03-26T06:24:47;100354.06;;;20.10;53.48
58686;BME280;44465;53.206;-6.106;2023-03-26T06:27:37;100335.03;;;20.00;53.53
58686;BME280;44465;53.206;-6.106;2023-03-26T06:30:21;100358.38;;;20.12;53.73
58686;BME280;44465;53.206;-6.106;2023-03-26T06:32:58;100339.59;;;19.98;53.81
58686;BME280;44465;53.206;-6.106;2023-03-26T06:35:27;100383.22;;;20.14;53.80
58686;BME280;44465;53.206;-6.106;2023-03-26T06:37:55;100352.00;;;19.99;53.78
58686;BME280;44465;53.206;-6.106;2023-03-26T06:40:33;100377.25;;;20.09;53.35
58686;BME280;44465;53.206;-6.106;2023-03-26T06:43:23;100393.91;;;20.14;53.37
58686;BME280;44465;53.206;-6.106;2023-03-26T06:46:05;100390.28;;;20.15;53.47
58686;BME280;44465;53.206;-6.106;2023-03-26T06:48:38;100367.19;;;19.98;53.42
58686;BME280;44465;53.206;-6.106;2023-03-26T06:51:18;100392.34;;;20.10;53.70
58686;BME280;44465;53.206;-6.106;2023-03-26T06:54:10;100414.09;;;20.20;53.51
58686;BME280;44465;53.206;-6.106;2023-03-26T06:56:53;100378.84;;;19.97;53.45
58686;BME280;44465;53.206;-6.106;2023-03-26T06:59:50;100396.34;;;20.03;53.46
58686;BME280;44465;53.206;-6.106;2023-03-26T07:02:44;100435.47;;;20.20;53.71
58686;BME280;44465;53.206;-6.106;2023-03-26T07:05:28;100437.47;;;20.17;53.91
58686;BME280;44465;53.206;-6.106;2023-03-26T07:08:09;100451.69;;;20.17;53.85
58686;BME280;44465;53.206;-6.106;2023-03-26T07:10:53;100427.72;;;19.99;53.87
58686;BME280;44465;53.206;-6.106;2023-03-26T07:13:37;100446.50;;;19.98;54.06
58686;BME280;44465;53.206;-6.106;2023-03-26T07:16:22;100478.31;;;20.19;53.86
58686;BME280;44465;53.206;-6.106;2023-03-26T07:19:28;100446.34;;;20.01;53.69
58686;BME280;44465;53.206;-6.106;2023-03-26T07:21:56;100449.53;;;19.92;53.81
58686;BME280;44465;53.206;-6.106;2023-03-26T07:24:45;100499.13;;;20.13;53.45
58686;BME280;44465;53.206;-6.106;2023-03-26T07:31:02;100529.13;;;20.19;53.56
58686;BME280;44465;53.206;-6.106;2023-03-26T07:33:48;100523.59;;;20.22;53.57
58686;BME280;44465;53.206;-6.106;2023-03-26T07:36:59;100532.75;;;20.18;53.71
58686;BME280;44465;53.206;-6.106;2023-03-26T07:46:26;100539.09;;;19.99;53.86
58686;BME280;44465;53.206;-6.106;2023-03-26T07:49:11;100559.13;;;20.08;53.67
58686;BME280;44465;53.206;-6.106;2023-03-26T07:51:55;100517.91;;;19.78;54.01
58686;BME280;44465;53.206;-6.106;2023-03-26T07:54:42;100577.59;;;20.12;53.88
58686;BME280;44465;53.206;-6.106;2023-03-26T07:57:53;100588.91;;;20.18;53.72
58686;BME280;44465;53.206;-6.106;2023-03-26T08:01:13;100566.53;;;20.03;53.60
58686;BME280;44465;53.206;-6.106;2023-03-26T08:07:34;100613.66;;;20.21;53.38
58686;BME280;44465;53.206;-6.106;2023-03-26T08:11:10;100622.63;;;20.20;53.75
58686;BME280;44465;53.206;-6.106;2023-03-26T08:16:42;100610.16;;;20.03;53.68
58686;BME280;44465;53.206;-6.106;2023-03-26T08:22:01;100641.66;;;20.14;53.86
58686;BME280;44465;53.206;-6.106;2023-03-26T08:30:38;100659.53;;;20.13;53.75
58686;BME280;44465;53.206;-6.106;2023-03-26T08:35:38;100630.47;;;19.90;53.49
58686;BME280;44465;53.206;-6.106;2023-03-26T08:38:19;100673.97;;;20.09;53.52
58686;BME280;44465;53.206;-6.106;2023-03-26T08:55:09;100737.25;;;20.26;53.80
58686;BME280;44465;53.206;-6.106;2023-03-26T09:09:04;100766.69;;;20.26;53.71
58686;BME280;44465;53.206;-6.106;2023-03-26T09:19:43;100789.88;;;20.26;53.58
58686;BME280;44465;53.206;-6.106;2023-03-26T09:23:15;100801.53;;;20.25;53.55
58686;BME280;44465;53.206;-6.106;2023-03-26T09:40:14;100858.28;;;20.30;53.83
58686;BME280;44465;53.206;-6.106;2023-03-26T09:50:54;100898.25;;;20.33;53.53
58686;BME280;44465;53.206;-6.106;2023-03-26T09:57:24;100915.25;;;20.32;53.70
58686;BME280;44465;53.206;-6.106;2023-03-26T10:32:45;100994.06;;;20.25;53.79
58686;BME280;44465;53.206;-6.106;2023-03-26T10:35:40;101016.03;;;20.32;53.92
58686;BME280;44465;53.206;-6.106;2023-03-26T10:53:20;101059.75;;;20.30;53.90
58686;BME280;44465;53.206;-6.106;2023-03-26T10:55:54;101055.50;;;20.26;53.94
58686;BME280;44465;53.206;-6.106;2023-03-26T10:58:22;101083.47;;;20.38;54.08
58686;BME280;44465;53.206;-6.106;2023-03-26T11:01:00;101037.53;;;20.11;54.02
58686;BME280;44465;53.206;-6.106;2023-03-26T11:33:12;101060.19;;;20.21;54.96
58686;BME280;44465;53.206;-6.106;2023-03-26T11:35:44;101109.31;;;20.57;54.74
58686;BME280;44465;53.206;-6.106;2023-03-26T11:38:18;101127.47;;;20.69;54.74
58686;BME280;44465;53.206;-6.106;2023-03-26T11:40:55;101173.84;;;20.89;54.78
58686;BME280;44465;53.206;-6.106;2023-03-26T11:43:40;101169.56;;;20.85;54.95
58686;BME280;44465;53.206;-6.106;2023-03-26T11:46:11;101131.53;;;20.59;54.65
58686;BME280;44465;53.206;-6.106;2023-03-26T11:49:12;101178.25;;;20.90;54.66
58686;BME280;44465;53.206;-6.106;2023-03-26T11:51:38;101151.47;;;20.71;54.44
58686;BME280;44465;53.206;-6.106;2023-03-26T11:54:10;101188.16;;;20.88;54.58
58686;BME280;44465;53.206;-6.106;2023-03-26T11:56:49;101203.41;;;20.86;54.52
58686;BME280;44465;53.206;-6.106;2023-03-26T11:59:40;101209.22;;;20.76;54.26
58686;BME280;44465;53.206;-6.106;2023-03-26T12:04:40;101224.97;;;20.83;54.37
58686;BME280;44465;53.206;-6.106;2023-03-26T12:07:33;101233.09;;;20.81;54.22
58686;BME280;44465;53.206;-6.106;2023-03-26T12:12:38;101246.56;;;20.80;54.34
58686;BME280;44465;53.206;-6.106;2023-03-26T12:15:16;101238.84;;;20.72;54.49
58686;BME280;44465;53.206;-6.106;2023-03-26T12:17:44;101178.06;;;20.36;54.60
58686;BME280;44465;53.206;-6.106;2023-03-26T12:22:54;101270.69;;;20.78;54.27
58686;BME280;44465;53.206;-6.106;2023-03-26T12:25:36;101260.53;;;20.66;54.40
58686;BME280;44465;53.206;-6.106;2023-03-26T12:31:02;101289.63;;;20.73;54.35
58686;BME280;44465;53.206;-6.106;2023-03-26T12:33:30;101303.53;;;20.82;54.40
58686;BME280;44465;53.206;-6.106;2023-03-26T12:36:29;101287.03;;;20.72;54.25
58686;BME280;44465;53.206;-6.106;2023-03-26T12:42:01;101312.50;;;20.81;54.39
58686;BME280;44465;53.206;-6.106;2023-03-26T12:44:44;101315.25;;;20.79;54.29
58686;BME280;44465;53.206;-6.106;2023-03-26T12:47:21;101324.22;;;20.78;54.45
58686;BME280;44465;53.206;-6.106;2023-03-26T12:49:48;101257.47;;;20.35;54.47
58686;BME280;44465;53.206;-6.106;2023-03-26T12:52:25;101335.81;;;20.79;54.34
58686;BME280;44465;53.206;-6.106;2023-03-26T12:57:56;101328.31;;;20.66;53.93
58686;BME280;44465;53.206;-6.106;2023-03-26T13:00:48;101349.34;;;20.75;53.97
58686;BME280;44465;53.206;-6.106;2023-03-26T13:03:29;101362.59;;;20.79;54.07
58686;BME280;44465;53.206;-6.106;2023-03-26T13:08:39;101359.91;;;20.79;54.43
58686;BME280;44465;53.206;-6.106;2023-03-26T13:13:51;101369.69;;;20.80;53.88
58686;BME280;44465;53.206;-6.106;2023-03-26T13:27:30;101390.22;;;20.79;54.02
58686;BME280;44465;53.206;-6.106;2023-03-26T13:33:03;101399.47;;;20.70;54.06
58686;BME280;44465;53.206;-6.106;2023-03-26T13:38:12;101416.91;;;20.81;53.91
58686;BME280;44465;53.206;-6.106;2023-03-26T13:43:58;101402.34;;;20.66;53.95
58686;BME280;44465;53.206;-6.106;2023-03-26T13:46:43;101385.13;;;20.52;53.98
58686;BME280;44465;53.206;-6.106;2023-03-26T13:49:26;101426.94;;;20.75;53.86
58686;BME280;44465;53.206;-6.106;2023-03-26T13:52:03;101394.09;;;20.51;54.02
58686;BME280;44465;53.206;-6.106;2023-03-26T13:54:47;101452.44;;;20.84;54.00
58686;BME280;44465;53.206;-6.106;2023-03-26T13:57:39;101452.44;;;20.84;54.06
58686;BME280;44465;53.206;-6.106;2023-03-26T14:05:59;101463.72;;;20.70;53.99
58686;BME280;44465;53.206;-6.106;2023-03-26T14:08:36;101464.78;;;20.66;53.93
58686;BME280;44465;53.206;-6.106;2023-03-26T14:11:08;101489.97;;;20.83;53.82
58686;BME280;44465;53.206;-6.106;2023-03-26T14:13:49;101422.09;;;20.42;53.84
58686;BME280;44465;53.206;-6.106;2023-03-26T14:28:51;101462.31;;;20.61;53.60
58686;BME280;44465;53.206;-6.106;2023-03-26T14:40:22;101510.94;;;20.94;53.78
58686;BME280;44465;53.206;-6.106;2023-03-26T14:53:40;101548.47;;;20.92;54.55
58686;BME280;44465;53.206;-6.106;2023-03-26T14:59:35;101550.56;;;21.06;54.03
58686;BME280;44465;53.206;-6.106;2023-03-26T15:24:55;101608.53;;;21.07;53.25
58686;BME280;44465;53.206;-6.106;2023-03-26T15:36:49;101641.56;;;21.07;53.69
58686;BME280;44465;53.206;-6.106;2023-03-26T15:39:51;101643.41;;;21.05;53.66
58686;BME280;44465;53.206;-6.106;2023-03-26T15:43:10;101640.75;;;21.05;53.46
58686;BME280;44465;53.206;-6.106;2023-03-26T15:45:40;101635.25;;;21.08;53.83
58686;BME280;44465;53.206;-6.106;2023-03-26T15:53:53;101642.41;;;21.08;53.66
58686;BME280;44465;53.206;-6.106;2023-03-26T16:21:37;101672.97;;;21.25;53.05
58686;BME280;44465;53.206;-6.106;2023-03-26T16:24:21;101591.41;;;20.68;53.03
58686;BME280;44465;53.206;-6.106;2023-03-26T16:37:42;101682.38;;;21.13;53.20
58686;BME280;44465;53.206;-6.106;2023-03-26T16:40:33;101706.50;;;21.13;52.97
58686;BME280;44465;53.206;-6.106;2023-03-26T16:43:42;101633.63;;;20.60;53.01
58686;BME280;44465;53.206;-6.106;2023-03-26T16:46:41;101729.63;;;21.15;52.93
58686;BME280;44465;53.206;-6.106;2023-03-26T16:49:29;101739.34;;;21.18;52.84
58686;BME280;44465;53.206;-6.106;2023-03-26T16:52:21;101747.25;;;21.21;52.98
58686;BME280;44465;53.206;-6.106;2023-03-26T16:55:04;101750.97;;;21.17;52.95
58686;BME280;44465;53.206;-6.106;2023-03-26T16:57:46;101710.19;;;20.88;53.32
58686;BME280;44465;53.206;-6.106;2023-03-26T17:06:12;101766.34;;;21.12;53.17
58686;BME280;44465;53.206;-6.106;2023-03-26T17:09:03;101761.25;;;21.05;53.21
58686;BME280;44465;53.206;-6.106;2023-03-26T17:11:49;101768.25;;;21.10;53.06
58686;BME280;44465;53.206;-6.106;2023-03-26T17:14:44;101774.13;;;20.96;52.13
58686;BME280;44465;53.206;-6.106;2023-03-26T17:20:17;101797.00;;;21.04;52.70
58686;BME280;44465;53.206;-6.106;2023-03-26T17:22:57;101691.84;;;20.31;52.83
58686;BME280;44465;53.206;-6.106;2023-03-26T17:52:34;101750.59;;;20.34;52.91
58686;BME280;44465;53.206;-6.106;2023-03-26T18:13:32;101886.81;;;20.89;53.61
58686;BME280;44465;53.206;-6.106;2023-03-26T18:31:55;101794.09;;;20.14;53.38
58686;BME280;44465;53.206;-6.106;2023-03-26T18:34:38;101779.84;;;20.13;53.66
58686;BME280;44465;53.206;-6.106;2023-03-26T18:56:38;101844.31;;;20.31;53.42
58686;BME280;44465;53.206;-6.106;2023-03-26T18:59:24;101820.81;;;20.14;53.47
58686;BME280;44465;53.206;-6.106;2023-03-26T19:09:34;101847.31;;;20.22;53.43
58686;BME280;44465;53.206;-6.106;2023-03-26T19:15:32;101826.41;;;20.08;53.71
58686;BME280;44465;53.206;-6.106;2023-03-26T19:25:27;101845.19;;;20.06;53.57
58686;BME280;44465;53.206;-6.106;2023-03-26T19:27:54;101953.38;;;20.75;53.30
58686;BME280;44465;53.206;-6.106;2023-03-26T19:30:32;101942.88;;;20.69;53.45
58686;BME280;44465;53.206;-6.106;2023-03-26T19:33:13;101974.50;;;20.84;53.78
58686;BME280;44465;53.206;-6.106;2023-03-26T19:35:41;101911.59;;;20.45;54.13
58686;BME280;44465;53.206;-6.106;2023-03-26T19:40:49;101971.03;;;20.81;54.76
58686;BME280;44465;53.206;-6.106;2023-03-26T19:43:16;101960.56;;;20.74;55.00
58686;BME280;44465;53.206;-6.106;2023-03-26T19:45:42;101983.38;;;20.85;55.73
58686;BME280;44465;53.206;-6.106;2023-03-26T19:48:08;101996.50;;;20.92;55.85
58686;BME280;44465;53.206;-6.106;2023-03-26T19:50:39;102001.88;;;20.92;55.31
58686;BME280;44465;53.206;-6.106;2023-03-26T19:53:18;101955.50;;;20.65;54.90
58686;BME280;44465;53.206;-6.106;2023-03-26T19:55:58;102006.31;;;20.92;55.15
58686;BME280;44465;53.206;-6.106;2023-03-26T19:58:28;101962.75;;;20.61;55.30
58686;BME280;44465;53.206;-6.106;2023-03-26T20:00:54;101972.41;;;20.66;54.89
58686;BME280;44465;53.206;-6.106;2023-03-26T20:03:28;102017.28;;;20.86;54.63
58686;BME280;44465;53.206;-6.106;2023-03-26T20:05:57;101999.56;;;20.82;54.92
58686;BME280;44465;53.206;-6.106;2023-03-26T20:08:26;101910.34;;;20.29;54.85
58686;BME280;44465;53.206;-6.106;2023-03-26T20:10:54;101908.41;;;20.34;54.80
58686;BME280;44465;53.206;-6.106;2023-03-26T20:17:23;101931.94;;;20.50;54.59
58686;BME280;44465;53.206;-6.106;2023-03-26T20:20:10;102023.59;;;21.08;54.57
58686;BME280;44465;53.206;-6.106;2023-03-26T20:22:45;101972.09;;;20.76;54.47
58686;BME280;44465;53.206;-6.106;2023-03-26T20:25:30;101922.44;;;20.41;54.44
58686;BME280;44465;53.206;-6.106;2023-03-26T20:27:57;101963.44;;;20.68;54.71
58686;BME280;44465;53.206;-6.106;2023-03-26T20:30:24;101945.22;;;20.53;54.43
58686;BME280;44465;53.206;-6.106;2023-03-26T20:32:50;102040.63;;;21.06;54.58
58686;BME280;44465;53.206;-6.106;2023-03-26T20:35:20;102017.19;;;20.87;54.34
58686;BME280;44465;53.206;-6.106;2023-03-26T20:37:46;102006.78;;;20.80;55.13
58686;BME280;44465;53.206;-6.106;2023-03-26T20:40:12;102006.78;;;20.80;54.78
58686;BME280;44465;53.206;-6.106;2023-03-26T20:42:43;102059.28;;;21.09;54.72
58686;BME280;44465;53.206;-6.106;2023-03-26T20:45:13;102052.25;;;21.06;54.55
58686;BME280;44465;53.206;-6.106;2023-03-26T20:47:39;102049.72;;;21.02;54.72
58686;BME280;44465;53.206;-6.106;2023-03-26T20:50:06;102045.47;;;20.96;54.75
58686;BME280;44465;53.206;-6.106;2023-03-26T20:52:31;102035.94;;;20.87;54.73
58686;BME280;44465;53.206;-6.106;2023-03-26T20:54:58;102045.63;;;20.91;54.79
58686;BME280;44465;53.206;-6.106;2023-03-26T20:57:24;102048.31;;;20.91;54.70
58686;BME280;44465;53.206;-6.106;2023-03-26T20:59:51;102059.69;;;20.98;54.66
58686;BME280;44465;53.206;-6.106;2023-03-26T21:02:19;102052.66;;;20.94;54.56
58686;BME280;44465;53.206;-6.106;2023-03-26T21:04:44;102034.34;;;20.82;54.64
58686;BME280;44465;53.206;-6.106;2023-03-26T21:07:17;102045.78;;;20.87;54.69